Time;durP1;ratioP1;P1;durP2;ratioP2;P2;SDS_P1;SDS_P2;PMS_P1;PMS_P2;Temp;Humidity;BMP_temperature;BMP_pressure;BME280_temperature;BME280_humidity;BME280_pressure;Samples;Min_cycle;Max_cycle;Signal;HPM_P1;HPM_P2
2021/08/26 00:07:17;;;;;;;1.67;1.33;;;;;;;17.30;60.47;98618.50;5070619;28;42840;-83
2021/08/26 00:09:44;;;;;;;1.47;1.20;;;;;;;17.26;60.41;98617.91;5053629;28;41541;-80
2021/08/26 00:12:12;;;;;;;1.87;1.43;;;;;;;17.16;60.26;98601.03;5086858;28;40005;-81
2021/08/26 00:14:40;;;;;;;1.80;1.47;;;;;;;17.20;60.38;98613.13;5093545;28;42125;-81
2021/08/26 00:17:08;;;;;;;0.93;0.87;;;;;;;17.11;60.24;98598.78;5096217;27;42299;-81
2021/08/26 00:19:38;;;;;;;0.93;0.93;;;;;;;17.14;60.47;98603.00;5110061;27;41598;-82
2021/08/26 00:22:05;;;;;;;1.83;1.40;;;;;;;17.10;60.50;98598.91;5121204;27;40786;-82
2021/08/26 00:24:34;;;;;;;1.33;1.23;;;;;;;17.07;60.48;98588.50;5121694;27;42730;-82
2021/08/26 00:27:01;;;;;;;1.17;1.00;;;;;;;17.05;60.45;98598.53;5111946;27;42218;-83
2021/08/26 00:29:29;;;;;;;2.03;1.30;;;;;;;16.96;60.75;98572.59;5125048;27;41067;-80
2021/08/26 00:32:04;;;;;;;1.90;1.53;;;;;;;16.92;60.97;98571.22;5101229;27;39486;-84
2021/08/26 00:34:32;;;;;;;1.73;1.50;;;;;;;16.88;61.11;98563.47;5097413;28;41961;-80
2021/08/26 00:37:01;;;;;;;1.27;1.00;;;;;;;16.95;61.02;98573.59;5125788;27;41647;-83
2021/08/26 00:39:28;;;;;;;1.53;1.03;;;;;;;16.94;61.24;98569.25;5113475;27;41877;-81
2021/08/26 00:41:56;;;;;;;1.37;1.20;;;;;;;16.99;61.28;98577.69;5122284;27;40343;-82
2021/08/26 00:44:23;;;;;;;1.23;1.13;;;;;;;17.06;60.73;98594.88;5120108;27;41996;-82
2021/08/26 00:46:51;;;;;;;1.50;1.30;;;;;;;17.08;61.03;98595.53;5096024;28;41728;-82
2021/08/26 00:49:19;;;;;;;0.90;0.90;;;;;;;17.10;60.81;98590.91;5108339;27;41772;-82
2021/08/26 00:51:46;;;;;;;2.40;1.60;;;;;;;17.03;61.26;98563.88;5114753;27;39895;-83
2021/08/26 00:54:15;;;;;;;1.43;1.33;;;;;;;17.18;61.01;98575.78;5128201;27;41643;-82
2021/08/26 00:56:43;;;;;;;2.13;1.73;;;;;;;17.25;60.89;98578.75;5144741;27;43505;-83
2021/08/26 00:59:10;;;;;;;1.10;1.00;;;;;;;17.21;60.63;98558.63;5133027;27;42194;-81
2021/08/26 01:01:46;;;;;;;1.27;1.03;;;;;;;17.36;61.04;98570.56;5143494;27;39987;-81
2021/08/26 01:04:21;;;;;;;1.33;1.00;;;;;;;17.41;60.74;98567.44;5142357;27;43375;-82
2021/08/26 01:06:57;;;;;;;2.10;0.97;;;;;;;17.46;60.74;98559.81;5138497;27;43416;-80
2021/08/26 01:09:33;;;;;;;2.37;1.50;;;;;;;17.50;60.50;98567.41;5109807;27;40428;-80
2021/08/26 01:12:03;;;;;;;2.63;1.40;;;;;;;17.53;60.58;98551.06;5128095;27;40820;-81
2021/08/26 01:14:31;;;;;;;1.43;1.33;;;;;;;17.53;60.66;98556.41;5109945;27;41609;-81
2021/08/26 01:16:58;;;;;;;1.67;0.90;;;;;;;17.56;60.60;98548.06;5101473;28;41957;-80
2021/08/26 01:19:26;;;;;;;2.80;1.27;;;;;;;17.60;60.44;98556.66;5087341;27;42656;-81
2021/08/26 01:21:54;;;;;;;1.70;0.97;;;;;;;17.59;60.26;98552.28;5108778;28;39243;-80
2021/08/26 01:24:23;;;;;;;1.70;1.30;;;;;;;17.62;60.33;98554.69;5123158;27;40786;-83
2021/08/26 01:26:55;;;;;;;1.77;1.37;;;;;;;17.67;60.50;98548.94;5117582;27;42935;-83
2021/08/26 01:29:23;;;;;;;1.53;1.20;;;;;;;17.59;60.17;98539.75;5127824;27;42512;-82
2021/08/26 01:31:51;;;;;;;1.40;1.27;;;;;;;17.68;60.16;98550.63;5101065;27;40157;-83
2021/08/26 01:34:21;;;;;;;1.83;1.23;;;;;;;17.63;59.95;98534.97;5120212;27;42634;-83
2021/08/26 01:36:49;;;;;;;1.20;1.10;;;;;;;17.71;60.02;98539.59;5126052;27;42865;-84
2021/08/26 01:39:17;;;;;;;2.30;1.57;;;;;;;17.74;59.80;98536.63;5097275;27;41814;-83
2021/08/26 01:41:46;;;;;;;1.23;1.13;;;;;;;17.76;59.84;98542.69;5108478;28;39049;-80
2021/08/26 01:44:16;;;;;;;1.60;0.87;;;;;;;17.70;60.20;98519.16;5119860;27;41700;-82
2021/08/26 01:46:44;;;;;;;1.77;1.20;;;;;;;17.62;60.25;98502.97;5117804;27;42798;-83
2021/08/26 01:49:11;;;;;;;2.07;1.40;;;;;;;17.76;60.50;98524.75;5110075;27;41625;-82
2021/08/26 01:51:41;;;;;;;1.80;1.20;;;;;;;17.76;60.15;98523.91;5117346;27;39969;-81
2021/08/26 01:54:08;;;;;;;1.53;1.17;;;;;;;17.77;60.24;98514.91;5121712;27;42753;-81
2021/08/26 01:56:36;;;;;;;1.83;1.10;;;;;;;17.78;60.12;98505.88;5124329;27;42144;-83
2021/08/26 01:59:04;;;;;;;1.87;1.50;;;;;;;17.78;59.85;98508.56;5114858;27;42415;-84
2021/08/26 02:01:33;;;;;;;1.10;1.00;;;;;;;17.79;59.90;98508.41;5126248;27;40503;-80
2021/08/26 02:04:03;;;;;;;1.27;1.13;;;;;;;17.77;59.82;98504.19;5119939;27;41869;-83
2021/08/26 02:06:31;;;;;;;2.13;1.53;;;;;;;17.71;59.91;98483.34;5118543;27;42023;-82
2021/08/26 02:08:58;;;;;;;2.50;1.57;;;;;;;17.76;59.94;98483.75;5127356;27;41514;-80
2021/08/26 02:11:26;;;;;;;1.67;1.33;;;;;;;17.80;59.98;98496.66;5097875;27;40089;-81
2021/08/26 02:13:53;;;;;;;1.97;1.33;;;;;;;17.73;59.96;98486.72;5106187;28;42078;-81
2021/08/26 02:16:21;;;;;;;1.47;1.10;;;;;;;17.79;60.01;98494.16;5122092;27;41748;-82
2021/08/26 02:18:50;;;;;;;2.33;1.90;;;;;;;17.71;60.46;98477.97;5098209;28;42556;-85
2021/08/26 02:21:18;;;;;;;1.30;1.20;;;;;;;17.67;59.97;98460.56;5128428;27;40197;-82
2021/08/26 02:23:47;;;;;;;2.13;1.33;;;;;;;17.69;59.95;98474.59;5100114;27;40746;-83
2021/08/26 02:26:14;;;;;;;2.33;1.40;;;;;;;17.76;59.96;98483.75;5121493;27;48110;-83
2021/08/26 02:28:42;;;;;;;1.77;1.40;;;;;;;17.71;60.00;98477.97;5107212;27;41180;-81
2021/08/26 02:31:09;;;;;;;1.80;1.37;;;;;;;17.82;59.85;98488.50;5096156;27;39017;-81
2021/08/26 02:33:37;;;;;;;2.23;1.50;;;;;;;17.83;59.82;98476.78;5125856;27;42981;-83
2021/08/26 02:36:06;;;;;;;1.73;1.30;;;;;;;17.84;59.71;98483.81;5101687;27;41813;-82
2021/08/26 02:38:33;;;;;;;1.63;1.33;;;;;;;17.83;59.75;98476.78;5100494;28;42425;-81
2021/08/26 02:41:01;;;;;;;1.90;1.53;;;;;;;17.75;59.91;98457.94;5127984;27;40185;-82
2021/08/26 02:43:29;;;;;;;3.03;1.13;;;;;;;17.88;60.05;98477.19;5097631;27;42151;-82
2021/08/26 02:45:56;;;;;;;2.30;1.67;;;;;;;17.79;59.92;98462.88;5105403;27;42742;-83
2021/08/26 02:48:23;;;;;;;1.80;1.10;;;;;;;17.86;59.90;98468.44;5122269;27;43025;-84
2021/08/26 02:50:51;;;;;;;1.20;1.10;;;;;;;17.91;59.87;98480.41;5115033;27;39831;-84
2021/08/26 02:53:20;;;;;;;2.10;1.47;;;;;;;17.89;59.87;98477.03;5128571;27;41490;-84
2021/08/26 02:55:48;;;;;;;1.37;1.27;;;;;;;17.87;59.86;98478.19;5116967;27;43065;-82
2021/08/26 02:58:15;;;;;;;2.10;1.43;;;;;;;17.91;60.10;98485.78;5102635;28;41240;-83
2021/08/26 03:00:43;;;;;;;1.37;1.10;;;;;;;17.85;60.27;98482.84;5106285;27;38988;-80
2021/08/26 03:03:10;;;;;;;1.20;1.10;;;;;;;17.81;60.79;98484.13;5095579;27;41144;-83
2021/08/26 03:05:38;;;;;;;2.07;1.50;;;;;;;17.64;61.35;98463.53;5124155;27;43083;-84
2021/08/26 03:08:06;;;;;;;1.77;1.30;;;;;;;17.67;61.64;98481.97;5120015;27;42528;-82
2021/08/26 03:10:35;;;;;;;2.13;1.60;;;;;;;17.59;61.56;98464.78;5117597;27;39767;-83
2021/08/26 03:13:04;;;;;;;1.50;1.40;;;;;;;17.56;62.16;98473.09;5109338;27;40692;-83
2021/08/26 03:15:31;;;;;;;1.93;1.20;;;;;;;17.39;63.24;98457.00;5113245;27;42774;-83
2021/08/26 03:17:59;;;;;;;2.33;1.37;;;;;;;17.36;64.05;98465.31;5122367;27;42231;-83
2021/08/26 03:20:26;;;;;;;1.63;1.30;;;;;;;17.11;64.28;98434.72;5105039;27;39232;-82
2021/08/26 03:22:54;;;;;;;2.50;1.50;;;;;;;17.04;65.47;98441.66;5081845;28;40630;-85
2021/08/26 03:25:22;;;;;;;1.57;1.27;;;;;;;16.95;65.64;98438.00;5110490;28;43075;-83
2021/08/26 03:27:51;;;;;;;1.90;1.63;;;;;;;16.96;66.35;98460.25;5093174;28;42915;-84
2021/08/26 03:30:18;;;;;;;1.87;1.70;;;;;;;16.93;66.98;98479.28;5092299;28;39031;-83
2021/08/26 03:32:46;;;;;;;1.43;1.33;;;;;;;16.87;67.56;98465.50;5110687;28;40628;-83
2021/08/26 03:35:13;;;;;;;1.77;1.33;;;;;;;16.83;68.46;98472.13;5109876;28;43885;-83
2021/08/26 03:37:41;;;;;;;1.83;1.63;;;;;;;16.72;68.27;98469.59;5109761;28;41338;-83
2021/08/26 03:40:10;;;;;;;2.00;1.60;;;;;;;16.58;70.03;98462.00;5110303;28;39832;-82
2021/08/26 03:42:37;;;;;;;3.50;1.73;;;;;;;16.62;70.40;98479.47;5109152;28;42044;-84
2021/08/26 03:45:07;;;;;;;1.87;1.67;;;;;;;16.55;70.97;98483.69;5109717;28;42755;-84
2021/08/26 03:47:35;;;;;;;2.17;1.80;;;;;;;16.53;72.19;98483.84;5108965;28;42307;-83
2021/08/26 03:50:03;;;;;;;2.03;1.70;;;;;;;16.49;72.15;98485.09;5092498;28;38901;-84
2021/08/26 03:52:30;;;;;;;3.77;2.43;;;;;;;16.45;72.58;98482.84;5109994;28;41385;-82
2021/08/26 03:54:58;;;;;;;1.33;1.23;;;;;;;16.42;72.62;98488.47;5092109;28;41893;-81
2021/08/26 03:57:25;;;;;;;2.40;1.90;;;;;;;16.40;72.66;98487.78;5110531;28;42421;-85
2021/08/26 03:59:53;;;;;;;1.83;1.60;;;;;;;16.38;73.22;98484.41;5091821;28;38903;-83
2021/08/26 04:02:23;;;;;;;2.03;1.80;;;;;;;16.23;72.93;98459.06;5110507;28;42094;-82
2021/08/26 04:04:50;;;;;;;2.30;2.10;;;;;;;16.32;73.72;98482.31;5092239;28;42121;-83
2021/08/26 04:07:19;;;;;;;1.47;1.27;;;;;;;16.19;73.60;98460.38;5091504;28;41476;-86
2021/08/26 04:09:47;;;;;;;2.07;1.90;;;;;;;16.26;74.07;98477.50;5108710;28;39917;-82
2021/08/26 04:12:14;;;;;;;1.60;1.50;;;;;;;16.22;74.84;98487.63;5091687;28;41431;-84
2021/08/26 04:14:42;;;;;;;2.77;2.23;;;;;;;16.20;75.43;98486.06;5108159;28;43807;-84
2021/08/26 04:17:09;;;;;;;2.00;1.50;;;;;;;16.15;75.46;98479.34;5109058;28;42504;-85
2021/08/26 04:19:38;;;;;;;2.23;1.97;;;;;;;16.14;74.77;98474.97;5092488;28;39200;-83
2021/08/26 04:22:05;;;;;;;2.00;1.80;;;;;;;16.13;75.84;98465.28;5109167;28;41165;-83
2021/08/26 04:24:33;;;;;;;2.63;1.90;;;;;;;16.10;75.76;98467.38;5092046;28;41779;-83
2021/08/26 04:27:00;;;;;;;2.83;2.00;;;;;;;16.03;75.72;98461.75;5109329;28;42407;-84
2021/08/26 04:29:28;;;;;;;2.10;1.90;;;;;;;16.04;76.10;98467.94;5108593;28;40774;-84
2021/08/26 04:31:55;;;;;;;2.03;1.83;;;;;;;16.01;75.69;98463.72;5109391;28;41768;-84
2021/08/26 04:34:23;;;;;;;2.37;1.63;;;;;;;16.03;75.61;98461.75;5095856;28;41674;-82
2021/08/26 04:36:52;;;;;;;2.33;2.00;;;;;;;15.95;76.63;98455.44;5110238;28;42587;-86
2021/08/26 04:39:20;;;;;;;2.97;1.83;;;;;;;16.01;76.31;98468.22;5108596;28;39052;-83
2021/08/26 04:41:47;;;;;;;1.83;1.53;;;;;;;16.05;76.14;98480.31;5092275;28;40538;-84
2021/08/26 04:44:15;;;;;;;1.30;1.20;;;;;;;16.06;76.28;98472.16;5112296;28;43800;-85
2021/08/26 04:46:43;;;;;;;1.47;1.37;;;;;;;15.98;76.28;98466.66;5096346;28;42213;-84
2021/08/26 04:49:11;;;;;;;1.30;1.10;;;;;;;16.06;76.25;98466.00;5112401;28;40090;-86
2021/08/26 04:51:38;;;;;;;1.30;1.13;;;;;;;16.03;76.23;98461.75;5095244;28;41650;-85
2021/08/26 04:54:07;;;;;;;3.37;1.87;;;;;;;16.07;76.11;98468.50;5112663;28;42964;-86
2021/08/26 04:56:35;;;;;;;1.50;1.30;;;;;;;16.02;75.89;98460.06;5112538;28;41211;-84
2021/08/26 04:59:02;;;;;;;1.70;1.60;;;;;;;16.01;76.88;98447.69;5095445;28;39291;-85
2021/08/26 05:01:30;;;;;;;1.60;1.47;;;;;;;16.06;76.48;98453.47;5095473;28;40845;-85
2021/08/26 05:04:05;;;;;;;1.93;1.50;;;;;;;16.04;76.19;98447.41;5096019;28;42059;-86
2021/08/26 05:06:33;;;;;;;1.77;1.40;;;;;;;16.12;75.97;98452.06;5094445;28;41586;-83
2021/08/26 05:09:01;;;;;;;1.97;1.77;;;;;;;16.11;76.51;98448.53;5094869;28;40254;-84
2021/08/26 05:11:30;;;;;;;1.57;1.47;;;;;;;16.17;76.26;98448.00;5095939;28;42127;-83
2021/08/26 05:13:58;;;;;;;2.53;2.20;;;;;;;16.20;76.09;98440.66;5111561;28;42922;-83
2021/08/26 05:16:25;;;;;;;2.30;1.87;;;;;;;16.24;76.54;98453.59;5094372;28;42468;-84
2021/08/26 05:18:54;;;;;;;1.60;1.50;;;;;;;16.20;76.43;98436.16;5094001;28;40859;-85
2021/08/26 05:21:21;;;;;;;2.27;2.07;;;;;;;16.23;76.07;98448.38;5125592;27;41006;-84
2021/08/26 05:23:49;;;;;;;1.70;1.40;;;;;;;16.37;76.27;98472.03;5114722;27;42817;-82
2021/08/26 05:26:16;;;;;;;1.70;1.43;;;;;;;16.39;76.32;98472.72;5131592;27;42636;-83
2021/08/26 05:28:46;;;;;;;2.33;2.07;;;;;;;16.43;76.43;98463.44;5131546;27;40426;-83
2021/08/26 05:31:15;;;;;;;1.93;1.73;;;;;;;16.47;76.13;98459.47;5105421;27;41049;-83
2021/08/26 05:33:43;;;;;;;1.83;1.33;;;;;;;16.55;76.33;98450.78;5133760;27;42647;-82
2021/08/26 05:36:10;;;;;;;1.63;1.53;;;;;;;16.80;75.98;98456.38;5132175;27;42641;-81
2021/08/26 05:38:37;;;;;;;1.50;1.40;;;;;;;16.86;75.66;98455.78;5103808;28;39235;-81
2021/08/26 05:41:05;;;;;;;2.20;1.67;;;;;;;16.92;75.34;98461.56;5110958;28;41755;-84
2021/08/26 05:43:32;;;;;;;1.57;1.47;;;;;;;17.07;74.69;98460.06;5112913;28;43298;-83
2021/08/26 05:46:05;;;;;;;1.43;1.33;;;;;;;17.27;74.76;98467.06;5094856;28;41159;-83
2021/08/26 05:48:32;;;;;;;1.83;1.60;;;;;;;17.40;74.55;98458.69;5111405;28;38816;-83
2021/08/26 05:51:00;;;;;;;1.83;1.43;;;;;;;17.46;74.47;98463.44;5112718;28;42718;-81
2021/08/26 05:53:27;;;;;;;1.70;1.40;;;;;;;17.44;73.96;98463.56;5109656;27;41878;-81
2021/08/26 05:55:55;;;;;;;1.70;1.60;;;;;;;17.50;73.68;98467.50;5112783;28;42026;-81
2021/08/26 05:58:23;;;;;;;1.40;1.13;;;;;;;17.53;73.98;98470.75;5110923;28;40672;-81
2021/08/26 06:00:50;;;;;;;1.43;1.27;;;;;;;17.42;73.69;98457.56;5094832;28;41574;-81
2021/08/26 06:03:19;;;;;;;1.23;1.20;;;;;;;17.51;73.77;98478.06;5110661;28;43058;-83
2021/08/26 06:05:47;;;;;;;0.97;0.97;;;;;;;17.52;73.31;98471.72;5110946;28;42558;-83
2021/08/26 06:08:14;;;;;;;1.20;1.10;;;;;;;17.61;73.17;98472.66;5111201;28;39902;-81
2021/08/26 06:10:42;;;;;;;1.33;1.23;;;;;;;17.68;73.31;98472.94;5110788;27;42554;-81
2021/08/26 06:13:09;;;;;;;1.77;1.47;;;;;;;17.69;73.11;98466.56;5110501;28;43199;-82
2021/08/26 06:15:37;;;;;;;1.40;1.30;;;;;;;17.66;73.30;98467.75;5110794;28;42348;-80
2021/08/26 06:18:05;;;;;;;1.23;1.03;;;;;;;17.73;72.81;98473.31;5110833;28;38892;-85
2021/08/26 06:20:36;;;;;;;1.43;1.20;;;;;;;17.82;72.50;98469.72;5110879;27;41667;-82
2021/08/26 06:23:03;;;;;;;1.03;1.00;;;;;;;17.95;72.67;98475.56;5114132;27;41771;-85
2021/08/26 06:25:31;;;;;;;1.33;1.23;;;;;;;18.16;71.97;98470.78;5131063;27;41210;-83
2021/08/26 06:27:59;;;;;;;1.83;1.33;;;;;;;18.34;71.92;98459.19;5131649;27;39471;-84
2021/08/26 06:30:33;;;;;;;1.43;1.27;;;;;;;18.61;70.93;98473.38;5117718;27;41973;-84
2021/08/26 06:33:01;;;;;;;1.87;1.10;;;;;;;18.62;70.75;98474.22;5093233;28;41745;-80
2021/08/26 06:35:28;;;;;;;1.10;1.00;;;;;;;18.67;70.61;98479.13;5110315;28;42282;-84
2021/08/26 06:37:57;;;;;;;1.37;1.03;;;;;;;18.66;70.44;98486.34;5110898;28;39820;-88
2021/08/26 06:40:25;;;;;;;1.27;1.17;;;;;;;18.64;70.90;98488.31;5110506;27;40569;-84
2021/08/26 06:42:52;;;;;;;1.27;1.17;;;;;;;18.60;70.82;98486.94;5131558;27;41903;-83
2021/08/26 06:45:20;;;;;;;1.80;1.00;;;;;;;18.60;70.65;98493.16;5131489;27;42397;-85
2021/08/26 06:47:48;;;;;;;1.00;1.00;;;;;;;18.67;70.58;98490.66;5130904;27;39800;-83
2021/08/26 06:50:15;;;;;;;1.10;1.00;;;;;;;18.65;70.44;98479.28;5132119;27;42091;-83
2021/08/26 06:52:43;;;;;;;0.80;0.80;;;;;;;18.71;70.20;98478.63;5119048;27;43798;-85
2021/08/26 06:55:12;;;;;;;1.07;0.80;;;;;;;18.60;70.61;98484.25;5110720;28;43304;-82
2021/08/26 06:57:39;;;;;;;0.93;0.90;;;;;;;18.55;70.51;98497.25;5113663;27;40922;-84
2021/08/26 07:00:08;;;;;;;0.80;0.73;;;;;;;18.42;70.61;98500.31;5111273;28;41988;-83
2021/08/26 07:02:36;;;;;;;2.37;1.27;;;;;;;18.25;70.91;98515.44;5108745;28;43635;-81
2021/08/26 07:05:05;;;;;;;0.67;0.67;;;;;;;18.09;71.98;98517.09;5091979;28;41153;-81
2021/08/26 07:07:32;;;;;;;1.43;0.90;;;;;;;17.91;71.16;98514.41;5109625;28;39271;-82
2021/08/26 07:10:00;;;;;;;0.60;0.60;;;;;;;17.77;70.01;98514.91;5109043;28;41970;-86
2021/08/26 07:12:30;;;;;;;0.80;0.60;;;;;;;17.68;70.14;98510.44;5118508;27;42106;-85
2021/08/26 07:14:58;;;;;;;0.83;0.43;;;;;;;17.62;69.11;98513.66;5119642;27;42424;-84
2021/08/26 07:17:26;;;;;;;2.10;1.27;;;;;;;17.69;69.70;98517.47;5120980;27;39642;-80
2021/08/26 07:19:54;;;;;;;0.30;0.30;;;;;;;17.74;69.78;98515.19;5119745;27;42985;-86
2021/08/26 07:22:21;;;;;;;0.50;0.50;;;;;;;17.82;70.01;98521.47;5108539;27;41743;-84
2021/08/26 07:24:49;;;;;;;0.60;0.60;;;;;;;17.92;69.38;98514.25;5128118;27;43264;-87
2021/08/26 07:27:16;;;;;;;0.70;0.60;;;;;;;18.14;69.59;98507.63;5131825;27;40209;-83
2021/08/26 07:29:45;;;;;;;0.97;0.73;;;;;;;18.37;68.89;98496.44;5125543;27;41757;-80
2021/08/26 07:32:13;;;;;;;0.80;0.80;;;;;;;18.65;67.54;98506.09;5116856;27;43559;-83
2021/08/26 07:34:40;;;;;;;0.67;0.67;;;;;;;18.80;65.68;98515.25;5113232;27;41490;-83
2021/08/26 07:37:08;;;;;;;0.60;0.60;;;;;;;18.97;65.88;98509.03;5093858;27;38841;-81
2021/08/26 07:39:35;;;;;;;1.47;0.57;;;;;;;19.18;65.81;98507.78;5119152;27;41245;-84
2021/08/26 07:42:03;;;;;;;0.53;0.53;;;;;;;19.34;64.40;98513.28;5125413;27;42934;-81
2021/08/26 07:44:31;;;;;;;0.73;0.73;;;;;;;19.51;64.00;98517.78;5127195;27;42057;-82
2021/08/26 07:47:07;;;;;;;0.50;0.50;;;;;;;19.79;64.43;98506.78;5128149;27;41937;-85
2021/08/26 07:49:37;;;;;;;0.70;0.70;;;;;;;20.31;64.21;98508.28;5119441;27;41694;-83
2021/08/26 07:52:05;;;;;;;0.83;0.53;;;;;;;20.76;63.19;98509.69;5117136;27;43895;-87
2021/08/26 07:54:33;;;;;;;1.33;0.50;;;;;;;21.06;62.20;98511.66;5111776;27;42567;-85
2021/08/26 07:57:01;;;;;;;0.43;0.33;;;;;;;22.10;58.64;98529.59;5109396;28;41021;-83
2021/08/26 07:59:29;;;;;;;0.63;0.53;;;;;;;23.26;54.70;98538.31;5093433;27;40779;-87
2021/08/26 08:01:56;;;;;;;0.47;0.47;;;;;;;23.96;52.49;98540.63;5130323;27;43901;-81
2021/08/26 08:04:25;;;;;;;0.50;0.50;;;;;;;24.82;50.40;98536.19;5128860;27;41168;-82
2021/08/26 08:06:53;;;;;;;0.67;0.67;;;;;;;24.79;50.90;98531.16;5129759;27;39038;-87
2021/08/26 08:09:20;;;;;;;0.80;0.60;;;;;;;24.54;50.73;98531.53;5129253;27;42007;-90
2021/08/26 08:11:48;;;;;;;0.50;0.50;;;;;;;24.38;49.58;98533.63;5128904;27;41970;-83
2021/08/26 08:14:15;;;;;;;0.57;0.57;;;;;;;24.47;50.55;98527.94;5111472;27;41178;-88
2021/08/26 08:16:43;;;;;;;0.80;0.80;;;;;;;24.57;50.55;98523.03;5108296;27;39003;-80
2021/08/26 08:19:11;;;;;;;0.50;0.50;;;;;;;24.10;49.37;98526.25;5112304;27;40932;-82
2021/08/26 08:21:40;;;;;;;0.40;0.40;;;;;;;24.06;50.47;98524.09;5112566;27;42153;-88
2021/08/26 08:24:07;;;;;;;0.47;0.47;;;;;;;24.64;49.61;98513.09;5127509;27;42670;-85
2021/08/26 08:26:35;;;;;;;0.53;0.47;;;;;;;25.31;47.86;98533.50;5125947;27;40994;-87
2021/08/26 08:29:02;;;;;;;0.70;0.70;;;;;;;25.55;45.61;98537.63;5116300;27;42628;-84
2021/08/26 08:31:30;;;;;;;1.13;0.73;;;;;;;26.19;46.36;98540.06;5116475;27;43018;-84
2021/08/26 08:34:00;;;;;;;0.80;0.80;;;;;;;27.20;43.46;98555.34;5091592;28;42286;-84
2021/08/26 08:36:27;;;;;;;0.50;0.50;;;;;;;28.38;40.83;98558.91;5113056;27;41499;-86
2021/08/26 08:38:56;;;;;;;0.90;0.80;;;;;;;29.69;38.37;98586.31;5130148;27;42129;-87
2021/08/26 08:41:23;;;;;;;0.83;0.83;;;;;;;30.04;37.45;98582.00;5127147;27;43325;-83
2021/08/26 08:43:52;;;;;;;0.77;0.60;;;;;;;29.70;36.65;98586.09;5128823;27;42207;-83
2021/08/26 08:46:21;;;;;;;0.80;0.80;;;;;;;29.70;36.32;98590.72;5128852;27;40243;-85
2021/08/26 08:48:49;;;;;;;0.80;0.80;;;;;;;30.62;34.87;98595.19;5125461;27;41865;-85
2021/08/26 08:51:16;;;;;;;0.80;0.70;;;;;;;30.64;34.49;98573.91;5129366;27;42938;-79
2021/08/26 08:53:45;;;;;;;0.77;0.77;;;;;;;30.35;34.17;98573.63;5107469;27;43021;-82
2021/08/26 08:56:14;;;;;;;0.60;0.60;;;;;;;30.09;34.42;98589.50;5089674;27;40455;-83
2021/08/26 08:58:42;;;;;;;0.90;0.70;;;;;;;29.29;35.85;98582.03;5096207;27;41644;-79
2021/08/26 09:01:14;;;;;;;0.70;0.70;;;;;;;29.06;36.47;98580.94;5098479;27;42077;-85
2021/08/26 09:03:42;;;;;;;0.73;0.73;;;;;;;28.48;36.94;98553.81;5113565;27;42033;-86
2021/08/26 09:06:09;;;;;;;0.50;0.40;;;;;;;28.06;38.68;98561.53;5097929;27;38936;-84
2021/08/26 09:08:37;;;;;;;0.53;0.50;;;;;;;27.53;38.34;98539.84;5114342;27;42453;-84
2021/08/26 09:11:15;;;;;;;0.70;0.40;;;;;;;27.27;39.52;98550.75;5108708;27;42964;-84
2021/08/26 09:13:44;;;;;;;0.77;0.70;;;;;;;26.74;37.90;98550.69;5087351;28;42471;-85
2021/08/26 09:16:12;;;;;;;0.40;0.40;;;;;;;26.66;39.01;98552.78;5117405;27;40072;-83
2021/08/26 09:18:40;;;;;;;0.70;0.50;;;;;;;26.91;38.57;98544.88;5112998;27;43206;-83
2021/08/26 09:21:10;;;;;;;0.43;0.43;;;;;;;27.09;38.30;98558.69;5097090;27;43025;-85
2021/08/26 09:23:53;;;;;;;2.27;0.50;;;;;;;26.90;37.79;98556.78;5114282;27;43074;-85
2021/08/26 09:26:24;;;;;;;0.50;0.50;;;;;;;26.93;39.14;98546.38;5096004;27;41013;-82
2021/08/26 09:28:53;;;;;;;1.07;0.43;;;;;;;27.02;37.00;98563.31;5087818;28;41636;-81
2021/08/26 09:31:21;;;;;;;0.33;0.33;;;;;;;27.38;35.97;98569.16;5095341;27;43700;-86
2021/08/26 09:33:53;;;;;;;0.50;0.50;;;;;;;27.96;34.84;98584.78;5117380;27;42827;-83
2021/08/26 09:36:23;;;;;;;0.50;0.50;;;;;;;28.29;34.48;98560.22;5119962;27;39221;-83
2021/08/26 09:38:53;;;;;;;0.50;0.50;;;;;;;28.57;33.91;98557.94;5112803;27;42920;-83
2021/08/26 09:41:53;;;;;;;0.30;0.30;;;;;;;28.38;34.28;98580.69;5118342;27;42695;-84
2021/08/26 09:44:24;;;;;;;0.37;0.37;;;;;;;28.13;35.87;98554.16;5033338;28;41866;-82
2021/08/26 09:46:54;;;;;;;1.37;0.40;;;;;;;28.30;34.85;98579.06;5066121;28;38902;-84
2021/08/26 09:49:23;;;;;;;0.30;0.30;;;;;;;28.10;32.88;98581.81;5087612;28;40763;-80
2021/08/26 09:52:05;;;;;;;0.47;0.47;;;;;;;28.17;33.52;98579.09;5117978;27;42239;-88
2021/08/26 09:54:40;;;;;;;0.50;0.50;;;;;;;27.76;34.26;98544.03;5118972;27;42890;-81
2021/08/26 09:57:23;;;;;;;0.50;0.50;;;;;;;27.55;35.36;98564.13;5118654;27;40124;-82
2021/08/26 09:59:51;;;;;;;0.60;0.57;;;;;;;27.11;35.29;98559.31;5126726;27;41844;-80
2021/08/26 10:02:21;;;;;;;0.30;0.30;;;;;;;26.87;36.65;98549.88;5129073;27;43315;-84
2021/08/26 10:04:49;;;;;;;0.30;0.30;;;;;;;26.80;36.10;98543.59;5124500;27;42371;-84
2021/08/26 10:07:18;;;;;;;0.50;0.50;;;;;;;26.49;36.35;98536.00;5103085;28;38933;-80
2021/08/26 10:09:46;;;;;;;0.33;0.30;;;;;;;26.46;36.15;98547.28;5107875;28;42069;-86
2021/08/26 10:12:16;;;;;;;0.37;0.30;;;;;;;26.45;36.22;98540.19;5133677;28;44134;-81
2021/08/26 10:14:47;;;;;;;0.50;0.50;;;;;;;26.27;36.37;98526.31;5134160;27;42952;-81
2021/08/26 10:17:16;;;;;;;0.40;0.30;;;;;;;26.33;36.81;98553.53;5135697;27;41670;-82
2021/08/26 10:19:44;;;;;;;0.50;0.50;;;;;;;26.75;36.09;98532.50;5134890;28;43228;-81
2021/08/26 10:22:13;;;;;;;0.70;0.70;;;;;;;27.06;36.82;98553.69;5135644;27;44319;-82
2021/08/26 10:24:41;;;;;;;0.40;0.40;;;;;;;27.47;35.43;98556.19;5145201;27;41489;-83
2021/08/26 10:27:12;;;;;;;0.60;0.50;;;;;;;27.72;35.20;98550.94;5128566;27;39231;-82
2021/08/26 10:29:45;;;;;;;0.40;0.40;;;;;;;29.11;33.61;98556.59;5141307;27;42111;-82
2021/08/26 10:32:17;;;;;;;0.30;0.20;;;;;;;28.77;33.04;98583.22;5107871;27;41657;-81
2021/08/26 10:35:06;;;;;;;0.50;0.50;;;;;;;27.91;33.83;98552.78;5138116;27;41404;-81
2021/08/26 10:37:52;;;;;;;0.47;0.47;;;;;;;27.95;34.27;98559.44;5133151;27;39630;-82
2021/08/26 10:40:33;;;;;;;0.40;0.40;;;;;;;28.09;33.84;98560.25;5131127;27;41656;-86
2021/08/26 10:43:02;;;;;;;0.40;0.40;;;;;;;27.74;34.80;98562.44;5131455;27;42269;-86
2021/08/26 10:45:48;;;;;;;0.43;0.43;;;;;;;27.38;36.13;98552.84;5129515;27;42711;-83
2021/08/26 10:48:20;;;;;;;0.67;0.53;;;;;;;26.96;36.17;98545.09;5123116;27;40247;-86
2021/08/26 10:51:07;;;;;;;0.30;0.30;;;;;;;26.57;36.47;98537.72;5110906;28;42704;-83
2021/08/26 10:53:36;;;;;;;0.37;0.37;;;;;;;26.37;35.84;98548.50;5111561;28;43128;-87
2021/08/26 10:56:19;;;;;;;1.67;0.70;;;;;;;26.11;35.81;98554.63;5110021;28;42111;-86
2021/08/26 10:58:47;;;;;;;0.30;0.30;;;;;;;25.89;36.54;98524.06;5130939;27;39981;-84
2021/08/26 11:01:39;;;;;;;0.40;0.40;;;;;;;25.93;35.79;98546.22;5108516;27;42042;-82
2021/08/26 11:04:17;;;;;;;0.30;0.27;;;;;;;25.87;36.34;98545.13;5092208;28;43292;-83
2021/08/26 11:06:49;;;;;;;0.80;0.30;;;;;;;25.71;35.96;98545.47;5091909;28;42197;-84
2021/08/26 11:09:27;;;;;;;0.80;0.50;;;;;;;25.64;35.71;98539.16;5111406;28;41905;-84
2021/08/26 11:12:03;;;;;;;0.20;0.20;;;;;;;25.95;35.63;98550.41;5108993;27;42698;-85
2021/08/26 11:14:39;;;;;;;0.73;0.50;;;;;;;26.47;35.54;98543.53;5095405;27;41664;-85
2021/08/26 11:17:25;;;;;;;0.20;0.20;;;;;;;27.25;34.01;98544.69;5111901;27;43307;-85
2021/08/26 11:19:53;;;;;;;0.83;0.50;;;;;;;27.82;33.07;98567.66;5109545;28;40600;-85
2021/08/26 11:22:21;;;;;;;0.50;0.37;;;;;;;27.79;33.35;98562.66;5092657;27;41027;-86
2021/08/26 11:24:55;;;;;;;0.37;0.37;;;;;;;27.66;34.04;98555.34;5109861;27;42876;-84
2021/08/26 11:27:26;;;;;;;0.63;0.53;;;;;;;27.92;33.42;98554.47;5110768;27;42205;-85
2021/08/26 11:29:54;;;;;;;0.30;0.30;;;;;;;28.22;31.94;98585.56;5092279;28;38833;-84
2021/08/26 11:32:27;;;;;;;0.43;0.43;;;;;;;28.67;31.68;98580.16;5109116;27;42800;-83
2021/08/26 11:34:57;;;;;;;0.43;0.40;;;;;;;28.87;31.88;98580.88;5091905;28;43684;-82
2021/08/26 11:37:31;;;;;;;0.80;0.77;;;;;;;28.90;31.85;98561.34;5109016;28;42322;-85
2021/08/26 11:40:01;;;;;;;0.67;0.60;;;;;;;29.14;31.29;98564.34;5112386;27;20226;-85
2021/08/26 11:42:32;;;;;;;0.50;0.40;;;;;;;29.81;30.71;98579.06;5091773;27;42123;-86
2021/08/26 11:45:19;;;;;;;0.40;0.37;;;;;;;29.29;30.37;98578.47;5109360;28;42874;-87
2021/08/26 11:47:51;;;;;;;0.50;0.30;;;;;;;28.87;31.75;98580.03;5092489;28;42524;-86
2021/08/26 11:50:22;;;;;;;0.30;0.30;;;;;;;28.83;32.32;98563.28;5113971;27;39364;-85